createdAt,value
2023-02-17T00:00:58.940Z,26.35
2023-02-17T00:03:26.418Z,27.00
2023-02-17T00:05:53.632Z,26.50
2023-02-17T00:08:21.049Z,25.88
2023-02-17T00:10:55.631Z,26.75
2023-02-17T00:13:22.893Z,25.83
2023-02-17T00:15:50.022Z,26.15
2023-02-17T00:18:17.182Z,24.38
2023-02-17T00:20:44.332Z,25.60
2023-02-17T00:23:11.669Z,24.70
2023-02-17T00:25:39.262Z,24.55
2023-02-17T00:28:06.864Z,24.02
2023-02-17T00:30:34.028Z,25.27
2023-02-17T00:33:01.617Z,25.65
2023-02-17T00:35:28.786Z,25.88
2023-02-17T00:37:56.107Z,26.05
2023-02-17T00:40:23.295Z,25.02
2023-02-17T00:42:50.506Z,25.35
2023-02-17T00:45:18.587Z,25.10
2023-02-17T00:47:45.687Z,25.10
2023-02-17T00:50:12.778Z,22.52
2023-02-17T00:52:39.919Z,22.30
2023-02-17T00:55:10.648Z,20.92
2023-02-17T00:57:37.907Z,23.08
2023-02-17T01:00:05.343Z,21.90
2023-02-17T01:02:34.224Z,21.23
2023-02-17T01:05:01.595Z,21.60
2023-02-17T01:07:28.812Z,20.77
2023-02-17T01:09:55.927Z,21.40
2023-02-17T01:12:22.804Z,19.98
2023-02-17T01:14:51.934Z,19.92
2023-02-17T01:17:18.693Z,20.90
2023-02-17T01:19:45.833Z,19.08
2023-02-17T01:22:12.955Z,19.38
2023-02-17T01:24:40.482Z,20.20
2023-02-17T01:27:07.640Z,20.20
2023-02-17T01:29:34.850Z,21.77
2023-02-17T01:32:04.037Z,20.35
2023-02-17T01:34:31.256Z,18.23
2023-02-17T01:36:59.727Z,18.02
2023-02-17T01:39:26.878Z,18.33
2023-02-17T01:41:54.041Z,18.58
2023-02-17T01:44:25.886Z,19.13
2023-02-17T01:46:54.431Z,16.42
2023-02-17T01:49:21.546Z,19.65
2023-02-17T01:51:51.892Z,18.88
2023-02-17T01:54:22.704Z,18.55
2023-02-17T01:56:51.512Z,19.02
2023-02-17T01:59:21.799Z,20.70
2023-02-17T02:01:51.268Z,20.95
2023-02-17T02:04:21.554Z,20.70
2023-02-17T02:06:49.154Z,19.63
2023-02-17T02:09:18.812Z,22.02
2023-02-17T02:11:48.239Z,20.67
2023-02-17T02:14:16.940Z,21.65
2023-02-17T02:16:56.277Z,20.55
2023-02-17T02:19:35.529Z,20.42
2023-02-17T02:22:22.197Z,20.58
2023-02-17T02:24:58.159Z,23.77
2023-02-17T02:27:28.288Z,21.15
2023-02-17T02:29:59.333Z,22.65
2023-02-17T02:32:49.259Z,23.02
2023-02-17T02:35:29.353Z,23.17
2023-02-17T02:38:15.455Z,24.42
2023-02-17T02:40:49.806Z,24.35
2023-02-17T02:43:17.130Z,25.23
2023-02-17T02:45:44.402Z,24.20
2023-02-17T02:48:11.669Z,26.52
2023-02-17T02:50:58.251Z,25.70
2023-02-17T02:53:46.571Z,25.55
2023-02-17T02:56:15.385Z,24.90
2023-02-17T02:58:48.313Z,24.15
2023-02-17T03:01:20.153Z,26.27
2023-02-17T03:03:49.553Z,25.65
2023-02-17T03:06:21.023Z,26.25
2023-02-17T03:08:51.580Z,27.92
2023-02-17T03:11:32.247Z,26.10
2023-02-17T03:14:05.818Z,26.75
2023-02-17T03:16:33.889Z,26.92
2023-02-17T03:19:01.026Z,27.10
2023-02-17T03:21:33.697Z,27.98
2023-02-17T03:24:00.784Z,28.75
2023-02-17T03:26:28.733Z,28.42
2023-02-17T03:28:56.853Z,28.35
2023-02-17T03:31:24.081Z,27.67
2023-02-17T03:33:51.435Z,28.98
2023-02-17T03:36:18.804Z,27.00
2023-02-17T03:38:46.705Z,27.23
2023-02-17T03:41:13.855Z,25.98
2023-02-17T03:43:41.025Z,25.25
2023-02-17T03:46:12.059Z,26.05
2023-02-17T03:48:39.581Z,27.30
2023-02-17T03:51:17.915Z,24.83
2023-02-17T03:53:45.281Z,24.30
2023-02-17T03:56:12.960Z,27.00
2023-02-17T03:58:40.746Z,24.35
2023-02-17T04:01:09.296Z,25.40
2023-02-17T04:03:37.051Z,25.33
2023-02-17T04:06:04.914Z,24.17
2023-02-17T04:08:32.762Z,23.58
2023-02-17T04:11:00.787Z,24.88
2023-02-17T04:13:28.116Z,24.80
2023-02-17T04:16:14.364Z,21.35
2023-02-17T04:18:41.554Z,21.10
2023-02-17T04:21:09.023Z,18.83
2023-02-17T04:23:36.951Z,19.67
2023-02-17T04:26:05.381Z,19.23
2023-02-17T04:28:32.664Z,18.23
2023-02-17T04:31:00.372Z,19.20
2023-02-17T04:33:27.574Z,19.63
2023-02-17T04:35:59.503Z,17.40
2023-02-17T04:38:30.736Z,18.25
2023-02-17T04:40:58.740Z,18.92
2023-02-17T04:43:26.657Z,16.02
2023-02-17T04:45:54.088Z,16.40
2023-02-17T04:48:21.379Z,16.25
2023-02-17T04:50:48.578Z,16.77
2023-02-17T04:53:15.933Z,16.10
2023-02-17T04:55:43.012Z,15.60
2023-02-17T04:58:10.556Z,15.68
2023-02-17T05:00:37.969Z,16.30
2023-02-17T05:03:07.653Z,15.60
2023-02-17T05:05:38.688Z,14.55
2023-02-17T05:08:06.641Z,15.65
2023-02-17T05:10:37.612Z,15.07
2023-02-17T05:13:04.822Z,14.95
2023-02-17T05:15:34.626Z,14.95
2023-02-17T05:18:02.113Z,16.63
2023-02-17T05:20:29.583Z,15.05
2023-02-17T05:22:56.751Z,16.42
2023-02-17T05:25:23.998Z,16.10
2023-02-17T05:27:51.129Z,17.80
2023-02-17T05:30:18.300Z,17.00
2023-02-17T05:32:45.564Z,17.55
2023-02-17T05:35:12.797Z,18.45
2023-02-17T05:37:39.959Z,17.67
2023-02-17T05:40:07.520Z,18.83
2023-02-17T05:42:34.664Z,18.05
2023-02-17T05:45:01.781Z,18.70
2023-02-17T05:47:28.950Z,18.88
2023-02-17T05:49:56.095Z,19.20
2023-02-17T05:52:23.238Z,17.77
2023-02-17T05:54:50.426Z,19.67
2023-02-17T05:57:17.521Z,20.23
2023-02-17T05:59:44.661Z,21.08
2023-02-17T06:02:11.754Z,18.95
2023-02-17T06:04:38.937Z,22.20
2023-02-17T06:07:06.148Z,19.73
2023-02-17T06:09:33.294Z,20.55
2023-02-17T06:12:00.432Z,19.35
2023-02-17T06:14:27.561Z,20.13
2023-02-17T06:16:56.765Z,20.35
2023-02-17T06:19:24.123Z,19.63
2023-02-17T06:21:51.262Z,20.13
2023-02-17T06:24:18.424Z,20.60
2023-02-17T06:26:45.559Z,21.63
2023-02-17T06:29:12.663Z,20.80
2023-02-17T06:31:40.182Z,19.88
2023-02-17T06:34:07.615Z,21.40
2023-02-17T06:36:34.793Z,21.33
2023-02-17T06:39:01.977Z,20.02
2023-02-17T06:41:29.036Z,20.55
2023-02-17T06:43:56.186Z,21.90
2023-02-17T06:46:23.268Z,22.27
2023-02-17T06:48:50.409Z,19.35
2023-02-17T06:51:17.577Z,21.98
2023-02-17T06:53:44.714Z,21.63
2023-02-17T06:56:11.846Z,20.23
2023-02-17T06:58:38.965Z,21.10
2023-02-17T07:01:08.082Z,20.83
2023-02-17T07:03:35.163Z,22.75
2023-02-17T07:06:02.396Z,20.50
2023-02-17T07:08:29.624Z,22.92
2023-02-17T07:10:58.699Z,21.77
2023-02-17T07:13:25.783Z,20.77
2023-02-17T07:15:52.940Z,20.73
2023-02-17T07:18:20.081Z,19.98
2023-02-17T07:20:48.456Z,20.08
2023-02-17T07:23:15.631Z,20.83
2023-02-17T07:25:43.161Z,20.25
2023-02-17T07:28:10.311Z,18.85
2023-02-17T07:30:40.957Z,20.00
2023-02-17T07:33:08.539Z,21.13
2023-02-17T07:35:35.625Z,20.00
2023-02-17T07:38:02.769Z,19.45
2023-02-17T07:40:29.940Z,20.13
2023-02-17T07:42:58.412Z,20.40
2023-02-17T07:45:25.554Z,21.13
2023-02-17T07:47:55.692Z,19.58
2023-02-17T07:50:22.790Z,20.20
2023-02-17T07:52:50.995Z,19.52
2023-02-17T07:55:18.201Z,20.38
2023-02-17T07:57:45.343Z,21.02
2023-02-17T08:00:12.726Z,19.88
2023-02-17T08:02:40.285Z,18.95
2023-02-17T08:05:07.372Z,19.33
2023-02-17T08:07:34.849Z,19.75
2023-02-17T08:10:20.632Z,19.38
2023-02-17T08:13:06.545Z,19.13
2023-02-17T08:15:34.882Z,19.38
2023-02-17T08:18:02.289Z,17.88
2023-02-17T08:20:29.351Z,17.67
2023-02-17T08:22:56.439Z,18.67
2023-02-17T08:25:23.519Z,17.92
2023-02-17T08:27:50.771Z,17.40
2023-02-17T08:30:17.952Z,18.95
2023-02-17T08:32:47.654Z,18.17
2023-02-17T08:35:14.871Z,19.23
2023-02-17T08:37:41.999Z,18.17
2023-02-17T08:40:09.470Z,17.70
2023-02-17T08:42:36.608Z,18.33
2023-02-17T08:45:04.500Z,17.45
2023-02-17T08:47:31.790Z,17.52
2023-02-17T08:49:58.885Z,17.17
2023-02-17T08:52:25.994Z,16.63
2023-02-17T08:54:53.208Z,17.45
2023-02-17T08:57:21.456Z,16.80
2023-02-17T08:59:48.867Z,16.48
2023-02-17T09:02:16.906Z,17.10
2023-02-17T09:04:44.128Z,15.68
2023-02-17T09:07:12.849Z,16.95
2023-02-17T09:09:40.252Z,15.23
2023-02-17T09:12:07.759Z,15.38
2023-02-17T09:14:35.126Z,15.55
2023-02-17T09:17:02.310Z,14.73
2023-02-17T09:19:29.557Z,16.45
2023-02-17T09:21:56.939Z,16.05
2023-02-17T09:24:24.051Z,15.20
2023-02-17T09:26:51.479Z,15.70
2023-02-17T09:29:19.780Z,13.38
2023-02-17T09:31:47.117Z,13.80
2023-02-17T09:34:15.374Z,14.02
2023-02-17T09:36:42.812Z,14.40
2023-02-17T09:39:12.424Z,13.60
2023-02-17T09:41:52.347Z,12.75
2023-02-17T09:44:26.473Z,13.82
2023-02-17T09:47:03.121Z,13.02
2023-02-17T09:49:36.906Z,13.40
2023-02-17T09:52:17.267Z,13.18
2023-02-17T09:54:50.342Z,12.52
2023-02-17T09:57:21.829Z,12.00
2023-02-17T09:59:58.186Z,12.68
2023-02-17T10:02:34.019Z,12.80
2023-02-17T10:05:03.623Z,12.45
2023-02-17T10:07:35.239Z,11.82
2023-02-17T10:10:35.696Z,12.65
2023-02-17T10:13:03.351Z,13.55
2023-02-17T10:15:32.679Z,11.32
2023-02-17T10:18:04.740Z,12.30
2023-02-17T10:20:36.889Z,11.93
2023-02-17T10:23:07.094Z,12.85
2023-02-17T10:25:40.310Z,11.57
2023-02-17T10:28:07.393Z,12.00
2023-02-17T10:30:53.687Z,11.10
2023-02-17T10:33:28.704Z,11.98
2023-02-17T10:36:01.600Z,11.85
2023-02-17T10:38:50.770Z,10.73
2023-02-17T10:41:21.213Z,12.27
2023-02-17T10:43:49.056Z,9.90
2023-02-17T10:46:17.847Z,10.77
2023-02-17T10:48:48.513Z,10.88
2023-02-17T10:51:16.737Z,10.50
2023-02-17T10:53:46.809Z,10.82
2023-02-17T10:56:25.932Z,11.25
2023-02-17T10:58:56.087Z,10.90
2023-02-17T11:01:23.331Z,10.95
2023-02-17T11:04:01.041Z,11.65
2023-02-17T11:06:28.230Z,11.43
2023-02-17T11:08:59.351Z,11.05
2023-02-17T11:11:27.901Z,11.10
2023-02-17T11:14:07.505Z,11.77
2023-02-17T11:16:39.619Z,11.27
2023-02-17T11:19:07.562Z,11.45
2023-02-17T11:21:35.931Z,13.48
2023-02-17T11:24:05.678Z,11.13
2023-02-17T11:26:34.918Z,11.15
2023-02-17T11:29:12.324Z,11.27
2023-02-17T11:31:42.626Z,11.85
2023-02-17T11:34:16.119Z,11.70
2023-02-17T11:36:45.789Z,12.07
2023-02-17T11:39:20.081Z,11.95
2023-02-17T11:41:47.227Z,11.18
2023-02-17T11:44:23.104Z,11.43
2023-02-17T11:46:57.968Z,10.80
2023-02-17T11:49:25.103Z,11.27
2023-02-17T11:51:56.130Z,10.45
2023-02-17T11:54:32.299Z,10.07
2023-02-17T11:57:14.934Z,10.63
2023-02-17T11:59:42.001Z,10.45
2023-02-17T12:02:14.764Z,9.60
2023-02-17T12:04:47.688Z,9.23
2023-02-17T12:07:28.270Z,9.65
2023-02-17T12:10:08.186Z,9.85
2023-02-17T12:12:41.180Z,9.07
2023-02-17T12:15:18.358Z,8.27
2023-02-17T12:18:04.840Z,7.93
2023-02-17T12:20:39.567Z,8.70
2023-02-17T12:23:09.518Z,6.97
2023-02-17T12:25:47.758Z,6.43
2023-02-17T12:28:44.168Z,6.70
2023-02-17T12:31:30.020Z,7.35
2023-02-17T12:34:08.129Z,5.43
2023-02-17T12:36:38.056Z,6.38
2023-02-17T12:39:13.939Z,5.57
2023-02-17T12:41:52.501Z,5.25
2023-02-17T12:44:28.313Z,5.63
2023-02-17T12:46:58.019Z,5.28
2023-02-17T12:49:32.069Z,4.50
2023-02-17T12:52:27.221Z,5.40
2023-02-17T12:55:48.630Z,5.00
2023-02-17T12:58:20.510Z,4.70
2023-02-17T13:00:50.375Z,5.18
2023-02-17T13:03:18.207Z,4.47
2023-02-17T13:05:51.280Z,5.32
2023-02-17T13:08:27.249Z,4.82
2023-02-17T13:11:01.596Z,4.57
2023-02-17T13:13:33.104Z,4.70
2023-02-17T13:16:14.334Z,4.65
2023-02-17T13:18:43.000Z,4.15
2023-02-17T13:21:16.215Z,4.38
2023-02-17T13:23:44.324Z,3.85
2023-02-17T13:26:23.561Z,4.53
2023-02-17T13:28:53.307Z,3.75
2023-02-17T13:31:25.522Z,3.95
2023-02-17T13:33:54.123Z,4.40
2023-02-17T13:36:41.489Z,4.22
2023-02-17T13:39:27.213Z,3.97
2023-02-17T13:41:55.928Z,3.72
2023-02-17T13:44:30.609Z,3.85
2023-02-17T13:47:00.314Z,3.75
2023-02-17T13:49:28.712Z,5.32
2023-02-17T13:51:55.844Z,4.18
2023-02-17T13:54:23.978Z,4.07
2023-02-17T13:56:52.307Z,4.47
2023-02-17T13:59:28.169Z,3.92
2023-02-17T14:01:55.349Z,3.65
2023-02-17T14:04:30.590Z,4.28
2023-02-17T14:06:59.362Z,4.68
2023-02-17T14:09:26.568Z,3.47
2023-02-17T14:11:54.508Z,4.10
2023-02-17T14:14:24.027Z,3.55
2023-02-17T14:17:11.502Z,4.57
2023-02-17T14:19:49.034Z,3.60
2023-02-17T14:22:30.897Z,3.22
2023-02-17T14:25:04.853Z,3.97
2023-02-17T14:27:45.721Z,4.03
2023-02-17T14:30:28.380Z,4.18
2023-02-17T14:33:08.584Z,3.67
2023-02-17T14:35:39.145Z,3.58
2023-02-17T14:38:10.456Z,3.30
2023-02-17T14:40:40.016Z,3.20
2023-02-17T14:43:07.312Z,3.55
2023-02-17T14:45:34.464Z,3.70
2023-02-17T14:48:01.701Z,3.83
2023-02-17T14:50:28.909Z,2.90
2023-02-17T14:52:56.342Z,3.65
2023-02-17T14:55:38.320Z,3.20
2023-02-17T14:58:05.790Z,3.55
2023-02-17T15:00:32.887Z,3.60
2023-02-17T15:03:00.055Z,2.95
2023-02-17T15:05:27.191Z,2.90
2023-02-17T15:07:54.320Z,3.28
2023-02-17T15:10:26.364Z,3.63
2023-02-17T15:12:53.909Z,3.28
2023-02-17T15:15:21.306Z,3.47
2023-02-17T15:17:48.777Z,3.20
2023-02-17T15:20:16.635Z,3.58
2023-02-17T15:22:44.337Z,3.90
2023-02-17T15:25:19.118Z,3.17
2023-02-17T15:27:46.856Z,3.15
2023-02-17T15:30:15.303Z,3.40
2023-02-17T15:32:42.789Z,3.58
2023-02-17T15:35:20.834Z,3.55
2023-02-17T15:37:48.270Z,3.45
2023-02-17T15:40:22.888Z,2.65
2023-02-17T15:42:52.661Z,4.05
2023-02-17T15:45:20.412Z,3.60
2023-02-17T15:47:47.934Z,3.47
2023-02-17T15:50:20.659Z,3.50
2023-02-17T15:52:48.289Z,3.15
2023-02-17T15:55:15.359Z,3.35
2023-02-17T15:57:46.025Z,2.70
2023-02-17T16:00:21.053Z,3.75
2023-02-17T16:02:48.191Z,2.90
2023-02-17T16:05:16.710Z,3.20
2023-02-17T16:07:44.440Z,4.15
2023-02-17T16:10:12.799Z,3.17
2023-02-17T16:12:40.528Z,3.67
2023-02-17T16:15:09.264Z,3.33
2023-02-17T16:17:36.479Z,3.80
2023-02-17T16:20:03.683Z,4.05
2023-02-17T16:22:30.867Z,3.20
2023-02-17T16:24:58.019Z,4.63
2023-02-17T16:27:25.243Z,4.88
2023-02-17T16:29:52.445Z,4.32
2023-02-17T16:32:19.770Z,4.82
2023-02-17T16:34:48.975Z,4.05
2023-02-17T16:37:17.316Z,5.07
2023-02-17T16:39:45.011Z,4.93
2023-02-17T16:42:14.642Z,4.47
2023-02-17T16:44:44.504Z,4.63
2023-02-17T16:47:18.890Z,4.50
2023-02-17T16:49:47.249Z,3.70
2023-02-17T16:52:40.428Z,3.92
2023-02-17T16:55:07.558Z,4.00
2023-02-17T16:57:35.944Z,3.45
2023-02-17T17:00:04.491Z,3.42
2023-02-17T17:02:31.638Z,2.83
2023-02-17T17:04:59.616Z,3.42
2023-02-17T17:07:31.586Z,3.28
2023-02-17T17:10:15.451Z,2.35
2023-02-17T17:12:44.205Z,2.90
2023-02-17T17:15:11.610Z,2.90
2023-02-17T17:17:45.307Z,2.15
2023-02-17T17:20:14.111Z,2.08
2023-02-17T17:22:41.407Z,2.47
2023-02-17T17:25:11.374Z,2.30
2023-02-17T17:27:41.713Z,2.80
2023-02-17T17:30:09.596Z,2.15
2023-02-17T17:32:36.720Z,2.20
2023-02-17T17:35:04.041Z,2.42
2023-02-17T17:37:31.112Z,2.42
2023-02-17T17:39:58.317Z,2.67
2023-02-17T17:42:25.379Z,2.75
2023-02-17T17:44:54.773Z,5.10
2023-02-17T17:47:29.731Z,3.47
2023-02-17T17:49:57.768Z,2.97
2023-02-17T17:52:24.991Z,5.75
2023-02-17T17:54:52.219Z,2.83
2023-02-17T17:57:19.331Z,2.40
2023-02-17T17:59:46.463Z,3.50
2023-02-17T18:02:13.533Z,2.15
2023-02-17T18:04:40.646Z,3.60
2023-02-17T18:07:08.188Z,2.42
2023-02-17T18:09:36.777Z,3.15
2023-02-17T18:12:07.957Z,2.13
2023-02-17T18:14:38.358Z,2.35
2023-02-17T18:17:10.907Z,2.55
2023-02-17T18:19:38.291Z,2.33
2023-02-17T18:22:05.488Z,2.40
2023-02-17T18:24:32.937Z,2.88
2023-02-17T18:27:00.183Z,2.20
2023-02-17T18:29:27.834Z,3.53
2023-02-17T18:31:55.116Z,2.00
2023-02-17T18:34:22.604Z,2.28
2023-02-17T18:36:49.672Z,2.38
2023-02-17T18:39:17.090Z,2.53
2023-02-17T18:41:44.196Z,3.30
2023-02-17T18:44:13.551Z,2.08
2023-02-17T18:46:41.236Z,2.20
2023-02-17T18:49:08.636Z,2.03
2023-02-17T18:51:36.110Z,1.95
2023-02-17T18:54:03.986Z,2.67
2023-02-17T18:56:32.976Z,2.85
2023-02-17T18:59:00.288Z,3.22
2023-02-17T19:01:29.648Z,3.30
2023-02-17T19:03:57.401Z,2.95
2023-02-17T19:06:28.873Z,2.53
2023-02-17T19:08:56.428Z,3.08
2023-02-17T19:11:24.299Z,2.42
2023-02-17T19:13:51.702Z,2.67
2023-02-17T19:16:20.629Z,2.92
2023-02-17T19:18:48.401Z,2.53
2023-02-17T19:21:18.070Z,2.53
2023-02-17T19:23:48.394Z,1.95
2023-02-17T19:26:16.893Z,2.70
2023-02-17T19:28:45.071Z,2.28
2023-02-17T19:31:14.265Z,2.80
2023-02-17T19:33:49.131Z,2.92
2023-02-17T19:36:18.091Z,2.40
2023-02-17T19:38:45.505Z,2.67
2023-02-17T19:41:13.343Z,3.13
2023-02-17T19:43:40.713Z,2.63
2023-02-17T19:46:08.510Z,2.45
2023-02-17T19:48:35.892Z,2.63
2023-02-17T19:51:04.672Z,3.08
2023-02-17T19:53:33.130Z,2.70
2023-02-17T19:56:24.540Z,3.60
2023-02-17T19:58:52.041Z,2.78
2023-02-17T20:01:20.654Z,2.78
2023-02-17T20:03:47.803Z,2.00
2023-02-17T20:06:17.972Z,3.08
2023-02-17T20:08:46.165Z,2.95
2023-02-17T20:11:13.828Z,2.90
2023-02-17T20:13:46.252Z,2.83
2023-02-17T20:16:14.531Z,2.65
2023-02-17T20:18:42.989Z,3.20
2023-02-17T20:21:10.601Z,3.47
2023-02-17T20:23:37.737Z,2.30
2023-02-17T20:26:06.743Z,3.03
2023-02-17T20:28:34.401Z,2.55
2023-02-17T20:31:01.878Z,2.83
2023-02-17T20:33:29.213Z,3.25
2023-02-17T20:35:56.364Z,2.78
2023-02-17T20:38:23.530Z,2.95
2023-02-17T20:40:51.081Z,3.17
2023-02-17T20:43:21.801Z,3.97
2023-02-17T20:45:54.443Z,2.90
2023-02-17T20:51:05.747Z,3.38
2023-02-17T20:53:33.623Z,3.28
2023-02-17T20:56:28.588Z,2.85
2023-02-17T20:58:58.742Z,2.80
2023-02-17T21:01:28.835Z,3.20
2023-02-17T21:03:56.981Z,2.95
2023-02-17T21:06:47.064Z,3.45
2023-02-17T21:09:16.859Z,2.95
2023-02-17T21:11:46.745Z,3.70
2023-02-17T21:14:14.582Z,2.45
2023-02-17T21:16:41.766Z,3.33
2023-02-17T21:19:09.370Z,3.28
2023-02-17T21:21:37.006Z,2.40
2023-02-17T21:24:07.080Z,3.60
2023-02-17T21:26:34.471Z,2.88
2023-02-17T21:29:07.825Z,2.55
2023-02-17T21:31:37.703Z,3.50
2023-02-17T21:34:04.996Z,3.00
2023-02-17T21:36:32.510Z,2.92
2023-02-17T21:39:01.298Z,3.00
2023-02-17T21:41:30.279Z,2.83
2023-02-17T21:44:16.230Z,2.78
2023-02-17T21:46:44.150Z,2.70
2023-02-17T21:49:12.028Z,2.55
2023-02-17T21:51:39.856Z,2.80
2023-02-17T21:54:11.566Z,3.58
2023-02-17T21:56:39.276Z,3.08
2023-02-17T21:59:06.837Z,3.15
2023-02-17T22:01:34.241Z,2.60
2023-02-17T22:04:05.313Z,2.83
2023-02-17T22:06:34.226Z,3.60
2023-02-17T22:09:04.140Z,4.00
2023-02-17T22:11:32.291Z,3.17
2023-02-17T22:14:00.987Z,4.05
2023-02-17T22:16:30.289Z,3.60
2023-02-17T22:18:57.772Z,2.80
2023-02-17T22:21:25.077Z,3.53
2023-02-17T22:23:52.201Z,4.70
2023-02-17T22:26:22.029Z,3.65
2023-02-17T22:28:49.265Z,4.13
2023-02-17T22:31:17.943Z,3.72
2023-02-17T22:33:45.444Z,3.28
2023-02-17T22:36:14.138Z,3.45
2023-02-17T22:38:41.448Z,3.97
2023-02-17T22:41:09.628Z,3.00
2023-02-17T22:43:37.658Z,3.30
2023-02-17T22:46:06.029Z,3.33
2023-02-17T22:48:34.371Z,3.13
2023-02-17T22:51:08.042Z,2.97
2023-02-17T22:53:36.186Z,3.63
2023-02-17T22:56:03.932Z,3.47
2023-02-17T22:58:31.008Z,2.88
2023-02-17T23:01:05.456Z,3.05
2023-02-17T23:03:32.681Z,3.58
2023-02-17T23:06:01.193Z,4.07
2023-02-17T23:08:28.460Z,4.57
2023-02-17T23:10:55.580Z,3.40
2023-02-17T23:13:22.841Z,2.85
2023-02-17T23:15:50.075Z,3.00
2023-02-17T23:18:18.536Z,2.78
2023-02-17T23:20:47.255Z,2.95
2023-02-17T23:23:14.982Z,3.05
2023-02-17T23:25:43.002Z,3.40
2023-02-17T23:28:10.847Z,3.03
2023-02-17T23:30:38.049Z,3.10
2023-02-17T23:33:05.221Z,3.10
2023-02-17T23:35:32.374Z,2.90
2023-02-17T23:38:00.690Z,3.22
2023-02-17T23:40:27.928Z,3.28
2023-02-17T23:42:55.062Z,3.20
2023-02-17T23:45:22.224Z,3.30
2023-02-17T23:47:52.156Z,3.03
2023-02-17T23:50:20.797Z,3.20
2023-02-17T23:52:47.991Z,4.28
2023-02-17T23:55:15.070Z,3.60
2023-02-17T23:57:42.203Z,3.25
